sensor_id;sensor_type;location;lat;lon;timestamp;pressure;altitude;pressure_sealevel;temperature;humidity
81641;BME280;74020;50.722;-1.944;2023-11-18T00:00:52;101370.42;;;10.53;100.00
81641;BME280;74020;50.722;-1.944;2023-11-18T00:03:17;101360.34;;;10.53;100.00
81641;BME280;74020;50.722;-1.944;2023-11-18T00:05:43;101348.75;;;10.55;100.00
81641;BME280;74020;50.722;-1.944;2023-11-18T00:08:08;101339.09;;;10.62;100.00
81641;BME280;74020;50.722;-1.944;2023-11-18T00:10:33;101338.30;;;10.67;100.00
81641;BME280;74020;50.722;-1.944;2023-11-18T00:12:59;101331.19;;;10.63;100.00
81641;BME280;74020;50.722;-1.944;2023-11-18T00:15:24;101323.16;;;10.78;100.00
81641;BME280;74020;50.722;-1.944;2023-11-18T00:17:49;101320.77;;;10.78;100.00
81641;BME280;74020;50.722;-1.944;2023-11-18T00:20:15;101318.53;;;10.75;100.00
81641;BME280;74020;50.722;-1.944;2023-11-18T00:22:40;101312.09;;;10.85;100.00
81641;BME280;74020;50.722;-1.944;2023-11-18T00:25:06;101313.70;;;10.75;100.00
81641;BME280;74020;50.722;-1.944;2023-11-18T00:27:31;101304.08;;;10.89;100.00
81641;BME280;74020;50.722;-1.944;2023-11-18T00:29:56;101302.87;;;10.82;100.00
81641;BME280;74020;50.722;-1.944;2023-11-18T00:32:22;101301.80;;;10.90;100.00
81641;BME280;74020;50.722;-1.944;2023-11-18T00:34:47;101300.87;;;10.91;100.00
81641;BME280;74020;50.722;-1.944;2023-11-18T00:37:12;101297.48;;;10.95;100.00
81641;BME280;74020;50.722;-1.944;2023-11-18T00:39:38;101295.02;;;10.78;100.00
81641;BME280;74020;50.722;-1.944;2023-11-18T00:42:03;101288.27;;;10.91;100.00
81641;BME280;74020;50.722;-1.944;2023-11-18T00:44:28;101275.80;;;10.96;100.00
81641;BME280;74020;50.722;-1.944;2023-11-18T00:46:54;101260.54;;;10.90;100.00
81641;BME280;74020;50.722;-1.944;2023-11-18T00:49:19;101266.27;;;10.89;100.00
81641;BME280;74020;50.722;-1.944;2023-11-18T00:51:45;101262.28;;;11.00;100.00
81641;BME280;74020;50.722;-1.944;2023-11-18T00:54:10;101264.05;;;10.99;100.00
81641;BME280;74020;50.722;-1.944;2023-11-18T00:56:36;101268.36;;;10.88;100.00
81641;BME280;74020;50.722;-1.944;2023-11-18T00:59:01;101259.15;;;11.06;100.00
81641;BME280;74020;50.722;-1.944;2023-11-18T01:01:26;101252.37;;;10.96;100.00
81641;BME280;74020;50.722;-1.944;2023-11-18T01:03:52;101246.26;;;10.98;100.00
81641;BME280;74020;50.722;-1.944;2023-11-18T01:06:17;101255.55;;;10.98;100.00
81641;BME280;74020;50.722;-1.944;2023-11-18T01:08:44;101244.89;;;10.90;100.00
81641;BME280;74020;50.722;-1.944;2023-11-18T01:11:08;101235.32;;;10.81;100.00
81641;BME280;74020;50.722;-1.944;2023-11-18T01:13:33;101220.97;;;10.87;100.00
81641;BME280;74020;50.722;-1.944;2023-11-18T01:15:58;101206.30;;;10.80;100.00
81641;BME280;74020;50.722;-1.944;2023-11-18T01:18:24;101198.92;;;10.89;100.00
81641;BME280;74020;50.722;-1.944;2023-11-18T01:20:49;101196.23;;;10.93;100.00
81641;BME280;74020;50.722;-1.944;2023-11-18T01:23:15;101185.84;;;10.84;100.00
81641;BME280;74020;50.722;-1.944;2023-11-18T01:25:40;101178.04;;;10.85;100.00
81641;BME280;74020;50.722;-1.944;2023-11-18T01:28:05;101174.85;;;10.76;100.00
81641;BME280;74020;50.722;-1.944;2023-11-18T01:30:30;101172.40;;;10.75;100.00
81641;BME280;74020;50.722;-1.944;2023-11-18T01:32:56;101163.46;;;10.89;100.00
81641;BME280;74020;50.722;-1.944;2023-11-18T01:35:21;101156.66;;;10.99;100.00
81641;BME280;74020;50.722;-1.944;2023-11-18T01:37:47;101153.16;;;10.82;100.00
81641;BME280;74020;50.722;-1.944;2023-11-18T01:40:12;101158.59;;;10.93;100.00
81641;BME280;74020;50.722;-1.944;2023-11-18T01:42:37;101163.04;;;10.90;100.00
81641;BME280;74020;50.722;-1.944;2023-11-18T01:45:03;101164.41;;;10.95;100.00
81641;BME280;74020;50.722;-1.944;2023-11-18T01:47:28;101167.22;;;10.96;100.00
81641;BME280;74020;50.722;-1.944;2023-11-18T01:49:53;101176.76;;;11.10;100.00
81641;BME280;74020;50.722;-1.944;2023-11-18T01:52:19;101168.68;;;10.93;100.00
81641;BME280;74020;50.722;-1.944;2023-11-18T01:54:44;101167.88;;;10.92;100.00
81641;BME280;74020;50.722;-1.944;2023-11-18T01:57:10;101176.41;;;10.98;100.00
81641;BME280;74020;50.722;-1.944;2023-11-18T01:59:35;101171.81;;;11.01;100.00
81641;BME280;74020;50.722;-1.944;2023-11-18T02:02:00;101176.53;;;11.05;100.00
81641;BME280;74020;50.722;-1.944;2023-11-18T02:04:25;101179.14;;;11.08;100.00
81641;BME280;74020;50.722;-1.944;2023-11-18T02:06:52;101173.05;;;11.07;100.00
81641;BME280;74020;50.722;-1.944;2023-11-18T02:09:16;101169.32;;;11.05;100.00
81641;BME280;74020;50.722;-1.944;2023-11-18T02:11:48;101160.85;;;11.04;100.00
81641;BME280;74020;50.722;-1.944;2023-11-18T02:14:08;101154.72;;;10.96;100.00
81641;BME280;74020;50.722;-1.944;2023-11-18T02:16:32;101159.76;;;11.01;100.00
81641;BME280;74020;50.722;-1.944;2023-11-18T02:18:59;101156.42;;;10.96;100.00
81641;BME280;74020;50.722;-1.944;2023-11-18T02:21:23;101152.20;;;11.10;100.00
81641;BME280;74020;50.722;-1.944;2023-11-18T02:23:48;101158.20;;;11.20;100.00
81641;BME280;74020;50.722;-1.944;2023-11-18T02:26:22;101152.27;;;11.15;100.00
81641;BME280;74020;50.722;-1.944;2023-11-18T02:28:39;101140.01;;;11.34;100.00
81641;BME280;74020;50.722;-1.944;2023-11-18T02:31:09;101130.13;;;11.24;100.00
81641;BME280;74020;50.722;-1.944;2023-11-18T02:33:35;101127.02;;;11.26;100.00
81641;BME280;74020;50.722;-1.944;2023-11-18T02:36:02;101117.02;;;11.21;100.00
81641;BME280;74020;50.722;-1.944;2023-11-18T02:38:26;101102.83;;;11.24;100.00
81641;BME280;74020;50.722;-1.944;2023-11-18T02:40:46;101098.08;;;11.23;100.00
81641;BME280;74020;50.722;-1.944;2023-11-18T02:43:11;101082.58;;;11.24;100.00
81641;BME280;74020;50.722;-1.944;2023-11-18T02:45:37;101078.14;;;11.21;100.00
81641;BME280;74020;50.722;-1.944;2023-11-18T02:48:02;101070.13;;;11.22;100.00
81641;BME280;74020;50.722;-1.944;2023-11-18T02:50:27;101071.52;;;11.25;100.00
81641;BME280;74020;50.722;-1.944;2023-11-18T02:52:53;101073.22;;;11.28;100.00
81641;BME280;74020;50.722;-1.944;2023-11-18T02:55:18;101075.47;;;11.35;100.00
81641;BME280;74020;50.722;-1.944;2023-11-18T02:57:43;101070.17;;;11.45;100.00
81641;BME280;74020;50.722;-1.944;2023-11-18T03:00:09;101066.37;;;11.48;100.00
81641;BME280;74020;50.722;-1.944;2023-11-18T03:02:34;101056.64;;;11.44;100.00
81641;BME280;74020;50.722;-1.944;2023-11-18T03:04:59;101041.98;;;11.49;100.00
81641;BME280;74020;50.722;-1.944;2023-11-18T03:07:25;101040.15;;;11.49;100.00
81641;BME280;74020;50.722;-1.944;2023-11-18T03:09:50;101036.70;;;11.52;100.00
81641;BME280;74020;50.722;-1.944;2023-11-18T03:12:15;101023.40;;;11.45;100.00
81641;BME280;74020;50.722;-1.944;2023-11-18T03:14:41;101019.49;;;11.54;100.00
81641;BME280;74020;50.722;-1.944;2023-11-18T03:17:06;101013.07;;;11.52;100.00
81641;BME280;74020;50.722;-1.944;2023-11-18T03:19:31;101014.58;;;11.53;100.00
81641;BME280;74020;50.722;-1.944;2023-11-18T03:21:57;101009.63;;;11.59;100.00
81641;BME280;74020;50.722;-1.944;2023-11-18T03:24:22;101009.52;;;11.65;100.00
81641;BME280;74020;50.722;-1.944;2023-11-18T03:26:47;100995.04;;;11.65;100.00
81641;BME280;74020;50.722;-1.944;2023-11-18T03:29:13;100984.77;;;11.75;100.00
81641;BME280;74020;50.722;-1.944;2023-11-18T03:31:38;100978.03;;;11.76;100.00
81641;BME280;74020;50.722;-1.944;2023-11-18T03:34:03;100974.70;;;11.94;100.00
81641;BME280;74020;50.722;-1.944;2023-11-18T03:36:28;100965.73;;;11.85;100.00
81641;BME280;74020;50.722;-1.944;2023-11-18T03:38:54;100966.06;;;11.76;100.00
81641;BME280;74020;50.722;-1.944;2023-11-18T03:41:19;100964.38;;;11.87;100.00
81641;BME280;74020;50.722;-1.944;2023-11-18T03:43:44;100953.03;;;11.95;100.00
81641;BME280;74020;50.722;-1.944;2023-11-18T03:46:10;100943.68;;;11.81;100.00
81641;BME280;74020;50.722;-1.944;2023-11-18T03:48:35;100929.09;;;11.85;100.00
81641;BME280;74020;50.722;-1.944;2023-11-18T03:51:01;100923.35;;;11.86;100.00
81641;BME280;74020;50.722;-1.944;2023-11-18T03:53:26;100914.55;;;11.86;100.00
81641;BME280;74020;50.722;-1.944;2023-11-18T03:55:51;100913.91;;;11.89;100.00
81641;BME280;74020;50.722;-1.944;2023-11-18T03:58:16;100911.39;;;11.98;100.00
81641;BME280;74020;50.722;-1.944;2023-11-18T04:00:42;100911.11;;;12.03;100.00
81641;BME280;74020;50.722;-1.944;2023-11-18T04:03:07;100907.43;;;12.05;100.00
81641;BME280;74020;50.722;-1.944;2023-11-18T04:05:32;100879.77;;;12.07;100.00
81641;BME280;74020;50.722;-1.944;2023-11-18T04:07:58;100884.63;;;12.05;100.00
81641;BME280;74020;50.722;-1.944;2023-11-18T04:12:49;100862.17;;;12.17;100.00
81641;BME280;74020;50.722;-1.944;2023-11-18T04:15:14;100855.96;;;12.20;100.00
81641;BME280;74020;50.722;-1.944;2023-11-18T04:17:40;100858.45;;;12.19;100.00
81641;BME280;74020;50.722;-1.944;2023-11-18T04:20:06;100862.01;;;12.20;100.00
81641;BME280;74020;50.722;-1.944;2023-11-18T04:22:30;100861.10;;;12.26;100.00
81641;BME280;74020;50.722;-1.944;2023-11-18T04:24:55;100859.04;;;12.33;100.00
81641;BME280;74020;50.722;-1.944;2023-11-18T04:27:21;100856.59;;;12.32;100.00
81641;BME280;74020;50.722;-1.944;2023-11-18T04:29:46;100849.92;;;12.33;100.00
81641;BME280;74020;50.722;-1.944;2023-11-18T04:32:11;100843.68;;;12.41;100.00
81641;BME280;74020;50.722;-1.944;2023-11-18T04:34:37;100836.45;;;12.42;100.00
81641;BME280;74020;50.722;-1.944;2023-11-18T04:37:02;100837.76;;;12.52;100.00
81641;BME280;74020;50.722;-1.944;2023-11-18T04:39:27;100845.08;;;12.61;100.00
81641;BME280;74020;50.722;-1.944;2023-11-18T04:41:53;100848.84;;;12.59;100.00
81641;BME280;74020;50.722;-1.944;2023-11-18T04:44:18;100859.35;;;12.54;100.00
81641;BME280;74020;50.722;-1.944;2023-11-18T04:46:43;100848.54;;;12.61;100.00
81641;BME280;74020;50.722;-1.944;2023-11-18T04:49:08;100840.21;;;12.45;100.00
81641;BME280;74020;50.722;-1.944;2023-11-18T04:51:34;100830.49;;;12.52;100.00
81641;BME280;74020;50.722;-1.944;2023-11-18T04:53:59;100825.04;;;12.56;100.00
81641;BME280;74020;50.722;-1.944;2023-11-18T04:56:24;100813.56;;;12.71;100.00
81641;BME280;74020;50.722;-1.944;2023-11-18T04:58:49;100808.18;;;12.71;100.00
81641;BME280;74020;50.722;-1.944;2023-11-18T05:01:15;100794.13;;;12.59;100.00
81641;BME280;74020;50.722;-1.944;2023-11-18T05:03:40;100799.91;;;12.65;100.00
81641;BME280;74020;50.722;-1.944;2023-11-18T05:06:06;100802.52;;;12.61;100.00
81641;BME280;74020;50.722;-1.944;2023-11-18T05:08:31;100803.00;;;12.75;100.00
81641;BME280;74020;50.722;-1.944;2023-11-18T05:10:56;100794.22;;;12.74;100.00
81641;BME280;74020;50.722;-1.944;2023-11-18T05:13:21;100793.41;;;12.72;100.00
81641;BME280;74020;50.722;-1.944;2023-11-18T05:15:47;100779.33;;;12.85;100.00
81641;BME280;74020;50.722;-1.944;2023-11-18T05:18:12;100773.45;;;12.80;100.00
81641;BME280;74020;50.722;-1.944;2023-11-18T05:20:37;100770.42;;;12.80;100.00
81641;BME280;74020;50.722;-1.944;2023-11-18T05:23:02;100771.74;;;12.87;100.00
81641;BME280;74020;50.722;-1.944;2023-11-18T05:25:27;100764.18;;;12.94;100.00
81641;BME280;74020;50.722;-1.944;2023-11-18T05:27:53;100761.98;;;12.88;100.00
81641;BME280;74020;50.722;-1.944;2023-11-18T05:30:18;100756.76;;;12.97;100.00
81641;BME280;74020;50.722;-1.944;2023-11-18T05:32:43;100752.06;;;12.96;100.00
81641;BME280;74020;50.722;-1.944;2023-11-18T05:35:09;100758.20;;;13.00;100.00
81641;BME280;74020;50.722;-1.944;2023-11-18T05:37:34;100763.89;;;13.08;100.00
81641;BME280;74020;50.722;-1.944;2023-11-18T05:40:00;100761.33;;;13.13;100.00
81641;BME280;74020;50.722;-1.944;2023-11-18T05:42:25;100752.81;;;13.18;100.00
81641;BME280;74020;50.722;-1.944;2023-11-18T05:44:50;100755.25;;;13.11;100.00
81641;BME280;74020;50.722;-1.944;2023-11-18T05:47:16;100753.67;;;13.16;100.00
81641;BME280;74020;50.722;-1.944;2023-11-18T05:49:41;100741.79;;;13.15;100.00
81641;BME280;74020;50.722;-1.944;2023-11-18T05:52:07;100708.16;;;13.11;100.00
81641;BME280;74020;50.722;-1.944;2023-11-18T05:54:31;100712.50;;;13.14;100.00
81641;BME280;74020;50.722;-1.944;2023-11-18T05:56:57;100712.85;;;13.22;100.00
81641;BME280;74020;50.722;-1.944;2023-11-18T05:59:22;100706.46;;;13.22;100.00
81641;BME280;74020;50.722;-1.944;2023-11-18T06:01:48;100711.46;;;13.33;100.00
81641;BME280;74020;50.722;-1.944;2023-11-18T06:04:13;100710.38;;;13.39;100.00
81641;BME280;74020;50.722;-1.944;2023-11-18T06:06:38;100704.62;;;13.45;100.00
81641;BME280;74020;50.722;-1.944;2023-11-18T06:09:04;100706.82;;;13.39;100.00
81641;BME280;74020;50.722;-1.944;2023-11-18T06:11:29;100704.97;;;13.48;100.00
81641;BME280;74020;50.722;-1.944;2023-11-18T06:13:54;100697.53;;;13.32;100.00
81641;BME280;74020;50.722;-1.944;2023-11-18T06:16:21;100702.05;;;13.41;100.00
81641;BME280;74020;50.722;-1.944;2023-11-18T06:18:46;100700.57;;;13.46;100.00
81641;BME280;74020;50.722;-1.944;2023-11-18T06:21:12;100695.50;;;13.51;100.00
81641;BME280;74020;50.722;-1.944;2023-11-18T06:23:36;100691.49;;;13.51;100.00
81641;BME280;74020;50.722;-1.944;2023-11-18T06:26:01;100684.13;;;13.48;100.00
81641;BME280;74020;50.722;-1.944;2023-11-18T06:28:27;100678.54;;;13.61;100.00
81641;BME280;74020;50.722;-1.944;2023-11-18T06:30:52;100680.31;;;13.62;100.00
81641;BME280;74020;50.722;-1.944;2023-11-18T06:33:17;100680.93;;;13.61;100.00
81641;BME280;74020;50.722;-1.944;2023-11-18T06:35:42;100681.10;;;13.64;100.00
81641;BME280;74020;50.722;-1.944;2023-11-18T06:38:07;100677.77;;;13.70;100.00
81641;BME280;74020;50.722;-1.944;2023-11-18T06:40:33;100671.93;;;13.64;100.00
81641;BME280;74020;50.722;-1.944;2023-11-18T06:42:58;100671.59;;;13.57;100.00
81641;BME280;74020;50.722;-1.944;2023-11-18T06:45:23;100677.88;;;13.61;100.00
81641;BME280;74020;50.722;-1.944;2023-11-18T06:47:48;100675.98;;;13.66;100.00
81641;BME280;74020;50.722;-1.944;2023-11-18T06:50:14;100668.50;;;13.70;100.00
81641;BME280;74020;50.722;-1.944;2023-11-18T06:52:39;100651.26;;;13.68;100.00
81641;BME280;74020;50.722;-1.944;2023-11-18T06:55:05;100661.58;;;13.64;100.00
81641;BME280;74020;50.722;-1.944;2023-11-18T06:57:29;100653.04;;;13.67;100.00
81641;BME280;74020;50.722;-1.944;2023-11-18T06:59:55;100644.60;;;13.66;100.00
81641;BME280;74020;50.722;-1.944;2023-11-18T07:02:20;100645.08;;;13.81;100.00
81641;BME280;74020;50.722;-1.944;2023-11-18T07:04:45;100654.10;;;13.74;100.00
81641;BME280;74020;50.722;-1.944;2023-11-18T07:07:10;100656.16;;;13.73;100.00
81641;BME280;74020;50.722;-1.944;2023-11-18T07:09:36;100647.71;;;13.75;100.00
81641;BME280;74020;50.722;-1.944;2023-11-18T07:12:01;100647.56;;;13.68;100.00
81641;BME280;74020;50.722;-1.944;2023-11-18T07:14:26;100639.22;;;13.78;100.00
81641;BME280;74020;50.722;-1.944;2023-11-18T07:16:51;100638.34;;;13.66;100.00
81641;BME280;74020;50.722;-1.944;2023-11-18T07:19:16;100637.64;;;13.79;100.00
81641;BME280;74020;50.722;-1.944;2023-11-18T07:21:42;100639.57;;;13.80;100.00
81641;BME280;74020;50.722;-1.944;2023-11-18T07:24:08;100631.01;;;13.80;100.00
81641;BME280;74020;50.722;-1.944;2023-11-18T07:26:32;100631.94;;;13.82;100.00
81641;BME280;74020;50.722;-1.944;2023-11-18T07:28:57;100639.21;;;13.89;100.00
81641;BME280;74020;50.722;-1.944;2023-11-18T07:31:23;100631.76;;;13.90;100.00
81641;BME280;74020;50.722;-1.944;2023-11-18T07:33:48;100638.82;;;14.00;100.00
81641;BME280;74020;50.722;-1.944;2023-11-18T07:36:13;100647.97;;;14.03;100.00
81641;BME280;74020;50.722;-1.944;2023-11-18T07:38:39;100653.16;;;13.97;100.00
81641;BME280;74020;50.722;-1.944;2023-11-18T07:41:04;100637.03;;;13.96;100.00
81641;BME280;74020;50.722;-1.944;2023-11-18T07:43:29;100656.69;;;14.07;100.00
81641;BME280;74020;50.722;-1.944;2023-11-18T07:45:55;100647.26;;;13.93;100.00
81641;BME280;74020;50.722;-1.944;2023-11-18T07:48:20;100650.14;;;14.00;100.00
81641;BME280;74020;50.722;-1.944;2023-11-18T07:50:46;100651.04;;;13.98;100.00
81641;BME280;74020;50.722;-1.944;2023-11-18T07:53:11;100635.96;;;14.00;100.00
81641;BME280;74020;50.722;-1.944;2023-11-18T07:55:36;100639.83;;;14.05;100.00
81641;BME280;74020;50.722;-1.944;2023-11-18T07:58:01;100640.90;;;14.00;100.00
81641;BME280;74020;50.722;-1.944;2023-11-18T08:00:27;100630.10;;;14.06;100.00
81641;BME280;74020;50.722;-1.944;2023-11-18T08:02:51;100637.94;;;14.06;100.00
81641;BME280;74020;50.722;-1.944;2023-11-18T08:05:17;100638.01;;;13.99;100.00
81641;BME280;74020;50.722;-1.944;2023-11-18T08:07:42;100641.15;;;14.04;100.00
81641;BME280;74020;50.722;-1.944;2023-11-18T08:10:08;100636.83;;;14.08;100.00
81641;BME280;74020;50.722;-1.944;2023-11-18T08:12:33;100641.53;;;14.01;100.00
81641;BME280;74020;50.722;-1.944;2023-11-18T08:14:59;100647.84;;;14.01;100.00
81641;BME280;74020;50.722;-1.944;2023-11-18T08:17:23;100636.27;;;13.94;100.00
81641;BME280;74020;50.722;-1.944;2023-11-18T08:22:13;100646.75;;;13.98;100.00
81641;BME280;74020;50.722;-1.944;2023-11-18T08:24:39;100645.81;;;14.01;100.00
81641;BME280;74020;50.722;-1.944;2023-11-18T08:27:04;100641.84;;;13.98;100.00
81641;BME280;74020;50.722;-1.944;2023-11-18T08:29:29;100624.38;;;13.98;100.00
81641;BME280;74020;50.722;-1.944;2023-11-18T08:31:54;100616.96;;;13.89;100.00
81641;BME280;74020;50.722;-1.944;2023-11-18T08:34:20;100615.07;;;13.84;100.00
81641;BME280;74020;50.722;-1.944;2023-11-18T08:36:45;100608.35;;;13.91;100.00
81641;BME280;74020;50.722;-1.944;2023-11-18T08:39:10;100604.43;;;13.92;100.00
81641;BME280;74020;50.722;-1.944;2023-11-18T08:41:35;100598.42;;;13.89;100.00
81641;BME280;74020;50.722;-1.944;2023-11-18T08:44:01;100604.54;;;13.99;100.00
81641;BME280;74020;50.722;-1.944;2023-11-18T08:46:26;100614.00;;;14.06;100.00
81641;BME280;74020;50.722;-1.944;2023-11-18T08:48:51;100607.85;;;14.09;100.00
81641;BME280;74020;50.722;-1.944;2023-11-18T08:51:16;100600.40;;;14.06;100.00
81641;BME280;74020;50.722;-1.944;2023-11-18T08:53:42;100605.89;;;14.08;100.00
81641;BME280;74020;50.722;-1.944;2023-11-18T08:56:08;100621.96;;;14.04;100.00
81641;BME280;74020;50.722;-1.944;2023-11-18T08:58:32;100621.03;;;14.05;100.00
81641;BME280;74020;50.722;-1.944;2023-11-18T09:00:58;100605.41;;;14.02;100.00
81641;BME280;74020;50.722;-1.944;2023-11-18T09:03:24;100586.84;;;13.92;100.00
81641;BME280;74020;50.722;-1.944;2023-11-18T09:05:48;100587.77;;;13.97;100.00
81641;BME280;74020;50.722;-1.944;2023-11-18T09:08:13;100603.78;;;13.92;100.00
81641;BME280;74020;50.722;-1.944;2023-11-18T09:10:39;100601.97;;;14.05;100.00
81641;BME280;74020;50.722;-1.944;2023-11-18T09:13:04;100602.22;;;14.07;100.00
81641;BME280;74020;50.722;-1.944;2023-11-18T09:15:29;100606.50;;;14.01;100.00
81641;BME280;74020;50.722;-1.944;2023-11-18T09:17:55;100600.22;;;14.03;100.00
81641;BME280;74020;50.722;-1.944;2023-11-18T09:20:20;100597.47;;;14.09;100.00
81641;BME280;74020;50.722;-1.944;2023-11-18T09:22:45;100611.24;;;14.10;100.00
81641;BME280;74020;50.722;-1.944;2023-11-18T09:25:10;100613.42;;;14.01;100.00
81641;BME280;74020;50.722;-1.944;2023-11-18T09:27:35;100612.78;;;13.83;100.00
81641;BME280;74020;50.722;-1.944;2023-11-18T09:30:01;100610.80;;;13.97;100.00
81641;BME280;74020;50.722;-1.944;2023-11-18T09:32:26;100624.10;;;13.99;100.00
81641;BME280;74020;50.722;-1.944;2023-11-18T09:34:52;100629.51;;;14.05;100.00
81641;BME280;74020;50.722;-1.944;2023-11-18T09:37:17;100634.69;;;13.98;100.00
81641;BME280;74020;50.722;-1.944;2023-11-18T09:39:42;100637.65;;;13.89;100.00
81641;BME280;74020;50.722;-1.944;2023-11-18T09:42:08;100631.26;;;14.00;100.00
81641;BME280;74020;50.722;-1.944;2023-11-18T09:44:34;100642.55;;;14.02;100.00
81641;BME280;74020;50.722;-1.944;2023-11-18T09:47:01;100623.14;;;13.97;100.00
81641;BME280;74020;50.722;-1.944;2023-11-18T09:49:27;100607.73;;;14.05;100.00
81641;BME280;74020;50.722;-1.944;2023-11-18T09:51:49;100602.63;;;14.02;100.00
81641;BME280;74020;50.722;-1.944;2023-11-18T09:54:19;100603.83;;;14.03;100.00
81641;BME280;74020;50.722;-1.944;2023-11-18T09:56:44;100609.95;;;14.09;100.00
81641;BME280;74020;50.722;-1.944;2023-11-18T09:59:10;100609.69;;;14.15;100.00
81641;BME280;74020;50.722;-1.944;2023-11-18T10:01:30;100605.38;;;14.10;100.00
81641;BME280;74020;50.722;-1.944;2023-11-18T10:03:55;100587.30;;;14.23;100.00
81641;BME280;74020;50.722;-1.944;2023-11-18T10:06:21;100583.80;;;14.15;100.00
81641;BME280;74020;50.722;-1.944;2023-11-18T10:08:46;100594.56;;;14.13;100.00
81641;BME280;74020;50.722;-1.944;2023-11-18T10:11:12;100602.21;;;14.27;100.00
81641;BME280;74020;50.722;-1.944;2023-11-18T10:13:37;100622.55;;;14.17;100.00
81641;BME280;74020;50.722;-1.944;2023-11-18T10:16:02;100623.20;;;14.29;100.00
81641;BME280;74020;50.722;-1.944;2023-11-18T10:18:27;100627.40;;;14.28;100.00
81641;BME280;74020;50.722;-1.944;2023-11-18T10:20:52;100635.78;;;14.32;100.00
81641;BME280;74020;50.722;-1.944;2023-11-18T10:23:18;100625.84;;;14.21;100.00
81641;BME280;74020;50.722;-1.944;2023-11-18T10:25:45;100632.50;;;14.18;100.00
81641;BME280;74020;50.722;-1.944;2023-11-18T10:28:08;100635.48;;;14.10;100.00
81641;BME280;74020;50.722;-1.944;2023-11-18T10:30:44;100640.24;;;14.19;100.00
81641;BME280;74020;50.722;-1.944;2023-11-18T10:32:59;100638.84;;;14.21;100.00
81641;BME280;74020;50.722;-1.944;2023-11-18T10:35:25;100638.14;;;14.26;100.00
81641;BME280;74020;50.722;-1.944;2023-11-18T10:37:49;100637.26;;;14.28;100.00
81641;BME280;74020;50.722;-1.944;2023-11-18T10:40:14;100629.06;;;14.23;100.00
81641;BME280;74020;50.722;-1.944;2023-11-18T10:42:39;100636.50;;;14.22;100.00
81641;BME280;74020;50.722;-1.944;2023-11-18T10:45:05;100642.00;;;14.42;100.00
81641;BME280;74020;50.722;-1.944;2023-11-18T10:47:32;100643.29;;;14.30;100.00
81641;BME280;74020;50.722;-1.944;2023-11-18T10:49:55;100643.77;;;14.29;100.00
81641;BME280;74020;50.722;-1.944;2023-11-18T10:52:20;100654.07;;;14.35;100.00
81641;BME280;74020;50.722;-1.944;2023-11-18T10:54:50;100637.39;;;14.37;100.00
81641;BME280;74020;50.722;-1.944;2023-11-18T10:57:11;100632.73;;;14.36;100.00
81641;BME280;74020;50.722;-1.944;2023-11-18T10:59:36;100641.57;;;14.43;100.00
81641;BME280;74020;50.722;-1.944;2023-11-18T11:04:26;100629.84;;;14.36;100.00
81641;BME280;74020;50.722;-1.944;2023-11-18T11:06:51;100636.72;;;14.54;100.00
81641;BME280;74020;50.722;-1.944;2023-11-18T11:09:17;100629.24;;;14.46;100.00
81641;BME280;74020;50.722;-1.944;2023-11-18T11:11:48;100632.10;;;14.39;100.00
81641;BME280;74020;50.722;-1.944;2023-11-18T11:14:08;100631.61;;;14.59;100.00
81641;BME280;74020;50.722;-1.944;2023-11-18T11:16:37;100625.05;;;14.48;100.00
81641;BME280;74020;50.722;-1.944;2023-11-18T11:19:02;100631.06;;;14.49;100.00
81641;BME280;74020;50.722;-1.944;2023-11-18T11:21:26;100640.04;;;14.55;100.00
81641;BME280;74020;50.722;-1.944;2023-11-18T11:23:53;100630.40;;;14.52;100.00
81641;BME280;74020;50.722;-1.944;2023-11-18T11:26:23;100631.97;;;14.42;100.00
81641;BME280;74020;50.722;-1.944;2023-11-18T11:28:42;100611.61;;;14.50;100.00
81641;BME280;74020;50.722;-1.944;2023-11-18T11:31:12;100600.92;;;14.54;100.00
81641;BME280;74020;50.722;-1.944;2023-11-18T11:33:33;100602.80;;;14.64;100.00
81641;BME280;74020;50.722;-1.944;2023-11-18T11:35:56;100589.62;;;14.66;100.00
81641;BME280;74020;50.722;-1.944;2023-11-18T11:38:20;100604.41;;;14.68;100.00
81641;BME280;74020;50.722;-1.944;2023-11-18T11:40:46;100610.99;;;14.75;100.00
81641;BME280;74020;50.722;-1.944;2023-11-18T11:43:11;100600.55;;;14.70;100.00
81641;BME280;74020;50.722;-1.944;2023-11-18T11:45:37;100607.29;;;14.81;100.00
81641;BME280;74020;50.722;-1.944;2023-11-18T11:48:03;100621.14;;;14.73;100.00
81641;BME280;74020;50.722;-1.944;2023-11-18T11:50:31;100608.66;;;14.86;100.00
81641;BME280;74020;50.722;-1.944;2023-11-18T11:52:56;100594.90;;;14.99;100.00
81641;BME280;74020;50.722;-1.944;2023-11-18T11:55:27;100576.42;;;14.89;100.00
81641;BME280;74020;50.722;-1.944;2023-11-18T11:57:50;100576.78;;;14.94;100.00
81641;BME280;74020;50.722;-1.944;2023-11-18T12:00:10;100583.48;;;14.86;100.00
81641;BME280;74020;50.722;-1.944;2023-11-18T12:02:34;100576.61;;;14.88;100.00
81641;BME280;74020;50.722;-1.944;2023-11-18T12:05:00;100583.18;;;14.87;100.00
81641;BME280;74020;50.722;-1.944;2023-11-18T12:07:25;100590.89;;;14.90;100.00
81641;BME280;74020;50.722;-1.944;2023-11-18T12:09:50;100596.31;;;14.91;100.00
81641;BME280;74020;50.722;-1.944;2023-11-18T12:12:21;100603.64;;;14.96;100.00
81641;BME280;74020;50.722;-1.944;2023-11-18T12:14:50;100608.91;;;14.84;100.00
81641;BME280;74020;50.722;-1.944;2023-11-18T12:17:07;100608.93;;;14.84;100.00
81641;BME280;74020;50.722;-1.944;2023-11-18T12:19:31;100616.11;;;14.70;100.00
81641;BME280;74020;50.722;-1.944;2023-11-18T12:21:56;100617.03;;;14.65;100.00
81641;BME280;74020;50.722;-1.944;2023-11-18T12:24:21;100622.38;;;14.73;100.00
81641;BME280;74020;50.722;-1.944;2023-11-18T12:26:46;100618.77;;;14.69;100.00